createdAt,value
2023-04-18T00:00:27.220Z,19.65
2023-04-18T00:02:55.218Z,16.63
2023-04-18T00:05:22.109Z,19.25
2023-04-18T00:07:48.714Z,19.65
2023-04-18T00:10:15.553Z,20.63
2023-04-18T00:12:42.923Z,18.95
2023-04-18T00:15:09.975Z,16.63
2023-04-18T00:17:38.518Z,19.48
2023-04-18T00:20:07.136Z,17.85
2023-04-18T00:22:33.736Z,21.35
2023-04-18T00:25:00.245Z,18.60
2023-04-18T00:27:26.790Z,18.33
2023-04-18T00:29:53.251Z,19.85
2023-04-18T00:32:19.841Z,17.02
2023-04-18T00:34:46.336Z,19.52
2023-04-18T00:37:13.022Z,20.33
2023-04-18T00:39:39.490Z,18.17
2023-04-18T00:42:06.232Z,18.25
2023-04-18T00:44:32.652Z,21.65
2023-04-18T00:46:59.183Z,19.55
2023-04-18T00:49:26.079Z,16.88
2023-04-18T00:51:53.730Z,17.83
2023-04-18T00:54:20.197Z,18.73
2023-04-18T00:56:46.875Z,15.65
2023-04-18T00:59:13.325Z,17.52
2023-04-18T01:01:40.344Z,17.98
2023-04-18T01:04:08.195Z,19.40
2023-04-18T01:06:35.407Z,17.60
2023-04-18T01:09:02.228Z,17.50
2023-04-18T01:11:28.685Z,17.90
2023-04-18T01:14:02.543Z,17.60
2023-04-18T01:16:29.739Z,14.80
2023-04-18T01:18:56.970Z,17.77
2023-04-18T01:21:23.441Z,18.10
2023-04-18T01:23:50.941Z,17.85
2023-04-18T01:26:17.422Z,18.50
2023-04-18T01:28:43.931Z,16.05
2023-04-18T01:31:10.545Z,17.90
2023-04-18T01:33:37.290Z,18.35
2023-04-18T01:36:03.901Z,18.17
2023-04-18T01:38:30.409Z,14.05
2023-04-18T01:40:56.905Z,17.67
2023-04-18T01:43:23.323Z,17.75
2023-04-18T01:45:49.732Z,17.05
2023-04-18T01:48:16.146Z,18.17
2023-04-18T01:50:42.544Z,18.38
2023-04-18T01:53:08.941Z,19.55
2023-04-18T01:55:35.515Z,19.60
2023-04-18T01:58:01.966Z,16.80
2023-04-18T02:00:28.488Z,17.50
2023-04-18T02:02:55.036Z,19.95
2023-04-18T02:05:21.650Z,21.42
2023-04-18T02:07:50.181Z,19.42
2023-04-18T02:10:16.663Z,21.70
2023-04-18T02:12:43.158Z,25.77
2023-04-18T02:15:10.564Z,27.30
2023-04-18T02:17:37.834Z,20.85
2023-04-18T02:20:04.793Z,20.33
2023-04-18T02:22:31.228Z,18.55
2023-04-18T02:24:57.668Z,16.25
2023-04-18T02:27:24.100Z,20.90
2023-04-18T02:29:50.662Z,23.08
2023-04-18T02:32:17.109Z,23.48
2023-04-18T02:34:43.523Z,23.85
2023-04-18T02:37:09.984Z,19.15
2023-04-18T02:39:36.473Z,17.23
2023-04-18T02:42:03.006Z,17.65
2023-04-18T02:44:29.488Z,15.57
2023-04-18T02:46:55.955Z,17.63
2023-04-18T02:49:22.397Z,17.42
2023-04-18T02:51:48.829Z,20.40
2023-04-18T02:54:15.445Z,17.58
2023-04-18T02:56:42.834Z,18.42
2023-04-18T02:59:09.321Z,17.27
2023-04-18T03:01:35.835Z,19.08
2023-04-18T03:04:02.450Z,20.45
2023-04-18T03:06:29.500Z,17.05
2023-04-18T03:08:55.951Z,15.52
2023-04-18T03:11:22.479Z,17.15
2023-04-18T03:13:48.993Z,19.45
2023-04-18T03:16:15.843Z,18.30
2023-04-18T03:18:42.344Z,16.67
2023-04-18T03:21:08.790Z,16.40
2023-04-18T03:23:35.322Z,16.35
2023-04-18T03:26:01.746Z,16.90
2023-04-18T03:28:28.184Z,15.82
2023-04-18T03:30:54.651Z,15.82
2023-04-18T03:33:22.436Z,18.38
2023-04-18T03:35:48.856Z,16.73
2023-04-18T03:38:15.283Z,17.05
2023-04-18T03:40:44.303Z,14.90
2023-04-18T03:43:11.117Z,15.32
2023-04-18T03:45:37.569Z,17.35
2023-04-18T03:48:04.382Z,15.65
2023-04-18T03:50:30.870Z,15.85
2023-04-18T03:52:57.330Z,16.98
2023-04-18T03:55:23.817Z,15.20
2023-04-18T03:57:50.379Z,15.07
2023-04-18T04:00:17.027Z,12.98
2023-04-18T04:02:43.699Z,15.45
2023-04-18T04:05:10.268Z,10.65
2023-04-18T04:07:36.781Z,13.90
2023-04-18T04:10:03.487Z,15.52
2023-04-18T04:12:29.967Z,14.45
2023-04-18T04:14:56.400Z,17.00
2023-04-18T04:17:22.897Z,17.00
2023-04-18T04:19:50.268Z,14.65
2023-04-18T04:22:16.828Z,15.27
2023-04-18T04:24:44.046Z,14.00
2023-04-18T04:27:12.459Z,17.50
2023-04-18T04:29:39.279Z,12.65
2023-04-18T04:32:06.661Z,16.15
2023-04-18T04:34:34.414Z,16.40
2023-04-18T04:37:01.364Z,15.93
2023-04-18T04:39:27.815Z,16.75
2023-04-18T04:41:55.433Z,14.98
2023-04-18T04:44:22.230Z,14.52
2023-04-18T04:46:49.780Z,14.70
2023-04-18T04:49:16.258Z,15.25
2023-04-18T04:51:42.962Z,14.73
2023-04-18T04:54:09.419Z,15.77
2023-04-18T04:56:36.564Z,14.30
2023-04-18T04:59:03.016Z,16.50
2023-04-18T05:01:29.448Z,15.35
2023-04-18T05:03:55.992Z,14.63
2023-04-18T05:06:22.839Z,13.45
2023-04-18T05:08:49.967Z,15.00
2023-04-18T05:11:16.977Z,16.77
2023-04-18T05:13:43.482Z,15.50
2023-04-18T05:16:10.006Z,15.18
2023-04-18T05:18:39.262Z,14.50
2023-04-18T05:21:06.031Z,14.00
2023-04-18T05:23:32.867Z,16.23
2023-04-18T05:25:59.335Z,15.48
2023-04-18T05:28:26.650Z,15.90
2023-04-18T05:30:53.273Z,16.85
2023-04-18T05:33:19.711Z,15.80
2023-04-18T05:35:46.522Z,17.15
2023-04-18T05:38:12.946Z,17.10
2023-04-18T05:40:39.387Z,16.77
2023-04-18T05:43:05.853Z,14.98
2023-04-18T05:45:32.283Z,15.70
2023-04-18T05:47:58.798Z,16.58
2023-04-18T05:50:25.814Z,15.27
2023-04-18T05:52:52.417Z,15.15
2023-04-18T05:55:18.971Z,15.18
2023-04-18T05:57:45.609Z,16.23
2023-04-18T06:00:12.984Z,13.73
2023-04-18T06:02:39.736Z,14.93
2023-04-18T06:05:07.585Z,12.32
2023-04-18T06:07:34.524Z,13.57
2023-04-18T06:10:00.999Z,12.77
2023-04-18T06:12:27.474Z,16.30
2023-04-18T06:14:53.913Z,14.45
2023-04-18T06:17:21.355Z,12.27
2023-04-18T06:19:47.828Z,15.90
2023-04-18T06:22:14.245Z,15.57
2023-04-18T06:24:40.759Z,13.57
2023-04-18T06:27:14.959Z,12.30
2023-04-18T06:29:47.063Z,12.38
2023-04-18T06:32:13.495Z,13.88
2023-04-18T06:34:40.638Z,13.30
2023-04-18T06:37:07.170Z,12.75
2023-04-18T06:39:33.595Z,15.63
2023-04-18T06:42:00.025Z,11.43
2023-04-18T06:44:26.449Z,12.15
2023-04-18T06:46:52.890Z,12.60
2023-04-18T06:49:20.740Z,12.35
2023-04-18T06:51:49.869Z,11.90
2023-04-18T06:54:16.466Z,12.93
2023-04-18T06:56:43.011Z,13.70
2023-04-18T06:59:09.530Z,12.60
2023-04-18T07:01:41.377Z,10.05
2023-04-18T07:04:08.029Z,11.43
2023-04-18T07:06:35.801Z,11.90
2023-04-18T07:09:02.549Z,10.38
2023-04-18T07:11:29.126Z,10.30
2023-04-18T07:13:55.619Z,9.48
2023-04-18T07:16:22.194Z,12.48
2023-04-18T07:18:48.761Z,13.20
2023-04-18T07:21:15.169Z,10.27
2023-04-18T07:23:41.603Z,10.65
2023-04-18T07:26:09.521Z,11.95
2023-04-18T07:28:36.034Z,9.18
2023-04-18T07:31:03.670Z,10.52
2023-04-18T07:33:33.523Z,10.15
2023-04-18T07:36:01.351Z,7.25
2023-04-18T07:38:27.837Z,8.18
2023-04-18T07:41:01.277Z,7.97
2023-04-18T07:43:27.710Z,6.07
2023-04-18T07:45:54.337Z,9.80
2023-04-18T07:48:25.138Z,6.55
2023-04-18T07:50:51.752Z,8.48
2023-04-18T07:53:18.270Z,10.18
2023-04-18T07:55:45.617Z,9.95
2023-04-18T07:58:12.442Z,6.28
2023-04-18T08:00:39.357Z,6.15
2023-04-18T08:03:07.559Z,8.82
2023-04-18T08:05:34.347Z,7.85
2023-04-18T08:08:00.848Z,9.77
2023-04-18T08:10:27.414Z,8.57
2023-04-18T08:12:53.896Z,10.18
2023-04-18T08:15:20.386Z,9.98
2023-04-18T08:17:49.040Z,9.82
2023-04-18T08:20:15.738Z,7.78
2023-04-18T08:22:57.392Z,9.43
2023-04-18T08:25:28.363Z,10.60
2023-04-18T08:27:55.306Z,9.27
2023-04-18T08:30:21.737Z,8.65
2023-04-18T08:32:49.304Z,8.68
2023-04-18T08:35:16.087Z,9.15
2023-04-18T08:37:43.234Z,11.60
2023-04-18T08:40:09.748Z,10.05
2023-04-18T08:42:38.279Z,9.43
2023-04-18T08:45:06.123Z,10.05
2023-04-18T08:47:35.153Z,11.73
2023-04-18T08:50:01.846Z,9.32
2023-04-18T08:52:30.348Z,10.13
2023-04-18T08:54:57.391Z,12.90
2023-04-18T08:57:26.783Z,10.10
2023-04-18T08:59:54.015Z,11.20
2023-04-18T09:02:23.572Z,11.88
2023-04-18T09:04:52.812Z,10.20
2023-04-18T09:07:28.509Z,11.02
2023-04-18T09:09:59.183Z,11.43
2023-04-18T09:12:27.168Z,14.15
2023-04-18T09:14:57.802Z,12.25
2023-04-18T09:17:45.527Z,14.98
2023-04-18T09:20:15.403Z,11.25
2023-04-18T09:22:50.453Z,10.55
2023-04-18T09:25:40.804Z,9.13
2023-04-18T09:28:24.065Z,10.27
2023-04-18T09:30:52.341Z,12.43
2023-04-18T09:33:28.049Z,11.98
2023-04-18T09:36:27.138Z,10.00
2023-04-18T09:38:56.705Z,7.75
2023-04-18T09:41:23.814Z,8.90
2023-04-18T09:43:50.301Z,7.75
2023-04-18T09:46:21.613Z,9.65
2023-04-18T09:48:48.162Z,8.02
2023-04-18T09:51:18.673Z,8.15
2023-04-18T09:53:47.328Z,10.68
2023-04-18T09:56:27.429Z,17.60
2023-04-18T09:59:02.501Z,10.65
2023-04-18T10:01:29.593Z,11.82
2023-04-18T10:03:57.385Z,9.70
2023-04-18T10:06:25.126Z,14.77
2023-04-18T10:08:52.472Z,8.43
2023-04-18T10:11:20.229Z,10.10
2023-04-18T10:13:48.092Z,10.02
2023-04-18T10:16:14.853Z,8.45
2023-04-18T10:18:42.763Z,9.43
2023-04-18T10:21:09.538Z,11.23
2023-04-18T10:23:40.505Z,9.27
2023-04-18T10:26:08.220Z,13.13
2023-04-18T10:28:53.491Z,10.15
2023-04-18T10:31:28.240Z,10.40
2023-04-18T10:36:28.810Z,8.35
2023-04-18T10:39:05.804Z,12.07
2023-04-18T10:41:33.736Z,7.50
2023-04-18T10:44:09.567Z,10.35
2023-04-18T10:46:43.825Z,9.82
2023-04-18T10:49:28.392Z,9.45
2023-04-18T10:52:00.381Z,10.85
2023-04-18T10:54:33.147Z,8.05
2023-04-18T10:57:04.613Z,9.15
2023-04-18T10:59:32.992Z,8.95
2023-04-18T11:02:11.356Z,7.07
2023-04-18T11:04:38.067Z,9.05
2023-04-18T11:07:05.094Z,9.57
2023-04-18T11:09:31.594Z,8.00
2023-04-18T11:12:06.469Z,8.32
2023-04-18T11:14:48.480Z,7.55
2023-04-18T11:17:18.421Z,9.63
2023-04-18T11:19:45.044Z,9.63
2023-04-18T11:22:12.025Z,9.85
2023-04-18T11:24:38.980Z,7.65
2023-04-18T11:27:05.555Z,8.98
2023-04-18T11:29:32.413Z,9.25
2023-04-18T11:31:58.967Z,11.73
2023-04-18T11:34:31.842Z,9.07
2023-04-18T11:36:58.425Z,8.48
2023-04-18T11:39:25.155Z,9.57
2023-04-18T11:41:51.761Z,9.38
2023-04-18T11:44:22.888Z,8.20
2023-04-18T11:46:51.236Z,9.27
2023-04-18T11:49:31.842Z,7.18
2023-04-18T11:52:11.093Z,6.97
2023-04-18T11:54:44.216Z,8.98
2023-04-18T11:57:27.835Z,10.07
2023-04-18T11:59:59.601Z,8.35
2023-04-18T12:02:37.972Z,7.95
2023-04-18T12:05:05.794Z,9.45
2023-04-18T12:07:37.997Z,8.18
2023-04-18T12:10:06.676Z,8.07
2023-04-18T12:12:33.681Z,8.73
2023-04-18T12:15:08.211Z,7.70
2023-04-18T12:17:36.378Z,7.68
2023-04-18T12:20:10.546Z,8.75
2023-04-18T12:22:38.525Z,8.63
2023-04-18T12:25:27.713Z,10.45
2023-04-18T12:28:13.636Z,9.35
2023-04-18T12:30:40.257Z,9.15
2023-04-18T12:33:06.936Z,8.85
2023-04-18T12:35:33.503Z,9.65
2023-04-18T12:38:01.319Z,8.68
2023-04-18T12:40:29.305Z,8.93
2023-04-18T12:42:56.299Z,7.63
2023-04-18T12:45:23.541Z,8.18
2023-04-18T12:47:51.135Z,9.70
2023-04-18T12:50:22.761Z,11.63
2023-04-18T12:52:51.233Z,11.50
2023-04-18T12:55:17.756Z,10.88
2023-04-18T12:57:44.317Z,10.93
2023-04-18T13:00:13.057Z,8.77
2023-04-18T13:02:44.186Z,9.68
2023-04-18T13:05:12.524Z,9.38
2023-04-18T13:07:40.457Z,9.45
2023-04-18T13:10:08.858Z,10.02
2023-04-18T13:12:35.679Z,11.45
2023-04-18T13:15:02.198Z,10.18
2023-04-18T13:17:28.700Z,9.20
2023-04-18T13:19:55.289Z,11.15
2023-04-18T13:22:21.908Z,10.52
2023-04-18T13:24:48.559Z,10.48
2023-04-18T13:27:15.323Z,12.38
2023-04-18T13:29:42.868Z,13.35
2023-04-18T13:32:09.661Z,12.70
2023-04-18T13:34:43.730Z,10.82
2023-04-18T13:37:10.223Z,11.27
2023-04-18T13:39:36.756Z,9.60
2023-04-18T13:42:04.323Z,11.48
2023-04-18T13:44:31.328Z,13.15
2023-04-18T13:46:58.014Z,13.20
2023-04-18T13:49:24.720Z,11.07
2023-04-18T13:51:53.424Z,15.90
2023-04-18T13:54:20.176Z,10.85
2023-04-18T13:56:46.748Z,11.85
2023-04-18T13:59:13.473Z,10.48
2023-04-18T14:01:40.209Z,11.32
2023-04-18T14:04:07.001Z,11.15
2023-04-18T14:06:33.714Z,11.77
2023-04-18T14:09:00.305Z,11.70
2023-04-18T14:11:26.786Z,8.85
2023-04-18T14:13:53.245Z,13.43
2023-04-18T14:16:19.788Z,10.80
2023-04-18T14:18:46.339Z,10.98
2023-04-18T14:21:12.753Z,9.48
2023-04-18T14:23:39.229Z,10.52
2023-04-18T14:26:05.854Z,9.20
2023-04-18T14:28:32.365Z,8.85
2023-04-18T14:31:01.991Z,10.35
2023-04-18T14:33:29.118Z,10.40
2023-04-18T14:35:55.596Z,11.38
2023-04-18T14:38:22.064Z,10.23
2023-04-18T14:40:48.524Z,8.70
2023-04-18T14:43:15.003Z,8.43
2023-04-18T14:45:41.462Z,9.85
2023-04-18T14:48:10.049Z,8.77
2023-04-18T14:50:38.546Z,8.23
2023-04-18T14:53:06.660Z,10.32
2023-04-18T14:55:34.242Z,12.52
2023-04-18T14:58:01.222Z,15.07
2023-04-18T15:00:27.742Z,26.45
2023-04-18T15:02:54.500Z,24.77
2023-04-18T15:05:23.765Z,16.92
2023-04-18T15:07:51.772Z,15.82
2023-04-18T15:10:19.312Z,18.08
2023-04-18T15:12:48.853Z,11.68
2023-04-18T15:15:15.346Z,14.48
2023-04-18T15:17:41.862Z,17.20
2023-04-18T15:20:09.382Z,16.77
2023-04-18T15:22:36.137Z,15.25
2023-04-18T15:25:04.352Z,15.23
2023-04-18T15:27:30.813Z,10.77
2023-04-18T15:29:57.315Z,8.32
2023-04-18T15:32:24.646Z,11.15
2023-04-18T15:34:51.513Z,14.20
2023-04-18T15:37:18.095Z,11.02
2023-04-18T15:39:44.569Z,11.68
2023-04-18T15:42:11.021Z,7.82
2023-04-18T15:44:37.474Z,9.30
2023-04-18T15:47:04.053Z,8.38
2023-04-18T15:49:30.552Z,13.80
2023-04-18T15:51:57.110Z,8.75
2023-04-18T15:54:23.623Z,12.48
2023-04-18T15:56:50.835Z,8.20
2023-04-18T15:59:17.390Z,7.32
2023-04-18T16:01:45.989Z,6.72
2023-04-18T16:04:13.195Z,5.90
2023-04-18T16:06:40.427Z,7.28
2023-04-18T16:09:06.928Z,12.32
2023-04-18T16:11:33.465Z,10.32
2023-04-18T16:13:59.922Z,4.90
2023-04-18T16:16:28.419Z,7.05
2023-04-18T16:18:54.959Z,6.95
2023-04-18T16:21:21.410Z,7.32
2023-04-18T16:23:48.665Z,5.13
2023-04-18T16:26:15.259Z,4.93
2023-04-18T16:28:42.075Z,4.53
2023-04-18T16:31:08.686Z,4.85
2023-04-18T16:33:35.225Z,6.28
2023-04-18T16:36:04.576Z,8.45
2023-04-18T16:38:31.084Z,6.25
2023-04-18T16:40:58.705Z,4.78
2023-04-18T16:43:27.008Z,10.18
2023-04-18T16:45:56.368Z,4.53
2023-04-18T16:48:23.701Z,3.58
2023-04-18T16:50:50.388Z,3.40
2023-04-18T16:53:17.275Z,3.47
2023-04-18T16:55:43.728Z,2.45
2023-04-18T16:58:11.135Z,5.78
2023-04-18T17:00:38.482Z,4.13
2023-04-18T17:03:09.820Z,3.17
2023-04-18T17:05:37.538Z,3.10
2023-04-18T17:08:04.099Z,4.90
2023-04-18T17:10:31.223Z,4.20
2023-04-18T17:12:58.254Z,4.45
2023-04-18T17:15:26.095Z,5.63
2023-04-18T17:17:52.639Z,3.67
2023-04-18T17:20:19.438Z,4.35
2023-04-18T17:22:45.916Z,6.75
2023-04-18T17:25:12.441Z,3.45
2023-04-18T17:27:41.156Z,4.25
2023-04-18T17:30:08.114Z,4.28
2023-04-18T17:32:35.251Z,3.85
